Private Wetterstation Sandau
Wetterdaten: Mittwoch, 07.03.2012
Datum Zeit Temp. A. Feuchte A. Luftdruck Regen Wind Richtung Richtung Taupunkt Windchill
07.03.2012 00:02 0,1 C 65 % 1030,8 hPa 0,0 l/m 2,5 km/h (1 Bft) SO 135 -5,7 C 0,1 C
07.03.2012 00:07 0,1 C 66 % 1030,9 hPa 0,0 l/m 9,4 km/h (2 Bft) O-SO 112 -5,5 C -3,0 C
07.03.2012 00:12 -0,1 C 66 % 1030,5 hPa 0,0 l/m 2,2 km/h (1 Bft) SO 135 -5,7 C -0,1 C
07.03.2012 00:17 -0,1 C 65 % 1030,6 hPa 0,0 l/m 3,6 km/h (1 Bft) SO 135 -5,9 C -0,1 C
07.03.2012 00:22 -0,1 C 65 % 1030,5 hPa 0,0 l/m 0,0 km/h (0 Bft) SO 135 -5,9 C -0,1 C
07.03.2012 00:27 -0,1 C 65 % 1030,7 hPa 0,0 l/m 1,8 km/h (1 Bft) SO 135 -5,9 C -0,1 C
07.03.2012 00:32 -0,1 C 65 % 1030,5 hPa 0,0 l/m 1,4 km/h (1 Bft) SO 135 -5,9 C -0,1 C
07.03.2012 00:37 -0,1 C 65 % 1030,6 hPa 0,0 l/m 2,5 km/h (1 Bft) SO 135 -5,9 C -0,1 C
07.03.2012 00:42 -0,1 C 65 % 1030,8 hPa 0,0 l/m 3,2 km/h (1 Bft) O-SO 112 -5,9 C -0,1 C
07.03.2012 00:47 -0,2 C 64 % 1030,8 hPa 0,0 l/m 7,2 km/h (2 Bft) SO 135 -6,2 C -2,7 C
07.03.2012 00:52 -0,2 C 64 % 1030,8 hPa 0,0 l/m 5,0 km/h (1 Bft) O-SO 112 -6,2 C -1,8 C
07.03.2012 00:57 -0,2 C 64 % 1030,8 hPa 0,0 l/m 3,2 km/h (1 Bft) O-SO 112 -6,2 C -0,2 C
07.03.2012 01:02 -0,2 C 64 % 1030,8 hPa 0,0 l/m 5,8 km/h (2 Bft) O-SO 112 -6,2 C -2,2 C
07.03.2012 01:07 -0,2 C 64 % 1031,0 hPa 0,0 l/m 2,5 km/h (1 Bft) O-SO 112 -6,2 C -0,2 C
07.03.2012 01:12 -0,2 C 64 % 1030,9 hPa 0,0 l/m 3,2 km/h (1 Bft) O-SO 112 -6,2 C -0,2 C
07.03.2012 01:17 -0,2 C 64 % 1030,9 hPa 0,0 l/m 8,6 km/h (2 Bft) SO 135 -6,2 C -3,2 C
07.03.2012 01:22 -0,2 C 64 % 1031,0 hPa 0,0 l/m 4,0 km/h (1 Bft) SO 135 -6,2 C -0,2 C
07.03.2012 01:27 -0,2 C 64 % 1030,6 hPa 0,0 l/m 3,6 km/h (1 Bft) O-SO 112 -6,2 C -0,2 C
07.03.2012 01:32 -0,3 C 64 % 1030,8 hPa 0,0 l/m 4,3 km/h (1 Bft) O-SO 112 -6,3 C -0,3 C
07.03.2012 01:37 -0,4 C 64 % 1030,8 hPa 0,0 l/m 7,6 km/h (2 Bft) O-SO 112 -6,4 C -3,1 C
07.03.2012 01:42 -0,4 C 64 % 1030,7 hPa 0,0 l/m 3,2 km/h (1 Bft) SO 135 -6,4 C -0,4 C
07.03.2012 01:47 -0,4 C 63 % 1030,8 hPa 0,0 l/m 6,5 km/h (2 Bft) SO 135 -6,6 C -2,7 C
07.03.2012 01:52 -0,4 C 63 % 1030,7 hPa 0,0 l/m 3,6 km/h (1 Bft) O-SO 112 -6,6 C -0,4 C
07.03.2012 01:57 -0,4 C 63 % 1030,6 hPa 0,0 l/m 10,8 km/h (2 Bft) SO 135 -6,6 C -4,0 C
07.03.2012 02:02 -0,4 C 63 % 1030,5 hPa 0,0 l/m 4,7 km/h (1 Bft) O-SO 112 -6,6 C -1,9 C
07.03.2012 02:07 -0,4 C 63 % 1030,7 hPa 0,0 l/m 5,8 km/h (2 Bft) SO 135 -6,6 C -2,4 C
07.03.2012 02:12 -0,4 C 63 % 1030,7 hPa 0,0 l/m 2,2 km/h (1 Bft) SO 135 -6,6 C -0,4 C
07.03.2012 02:17 -0,4 C 63 % 1030,6 hPa 0,0 l/m 2,5 km/h (1 Bft) SO 135 -6,6 C -0,4 C
07.03.2012 02:22 -0,4 C 63 % 1030,5 hPa 0,0 l/m 3,2 km/h (1 Bft) SO 135 -6,6 C -0,4 C
07.03.2012 02:27 -0,4 C 63 % 1030,6 hPa 0,0 l/m 9,0 km/h (2 Bft) O-SO 112 -6,6 C -3,5 C
07.03.2012 02:32 -0,5 C 64 % 1030,4 hPa 0,0 l/m 5,4 km/h (1 Bft) SO 135 -6,5 C -2,3 C
07.03.2012 02:37 -0,6 C 64 % 1030,3 hPa 0,0 l/m 4,0 km/h (1 Bft) SO 135 -6,5 C -0,6 C
07.03.2012 02:42 -0,6 C 64 % 1030,3 hPa 0,0 l/m 2,9 km/h (1 Bft) SO 135 -6,5 C -0,6 C
07.03.2012 02:47 -0,7 C 64 % 1030,3 hPa 0,0 l/m 3,6 km/h (1 Bft) SO 135 -6,6 C -0,7 C
07.03.2012 02:52 -0,7 C 64 % 1030,4 hPa 0,0 l/m 4,3 km/h (1 Bft) SO 135 -6,6 C -0,7 C
07.03.2012 02:57 -0,7 C 64 % 1030,3 hPa 0,0 l/m 5,0 km/h (1 Bft) SO 135 -6,6 C -2,4 C
07.03.2012 03:02 -0,8 C 65 % 1030,3 hPa 0,0 l/m 4,0 km/h (1 Bft) SO 135 -6,5 C -0,8 C
07.03.2012 03:07 -0,9 C 65 % 1030,2 hPa 0,0 l/m 4,7 km/h (1 Bft) SO 135 -6,6 C -2,5 C
07.03.2012 03:12 -0,9 C 65 % 1030,2 hPa 0,0 l/m 2,5 km/h (1 Bft) SO 135 -6,6 C -0,9 C
07.03.2012 03:17 -1,0 C 66 % 1030,1 hPa 0,0 l/m 6,1 km/h (2 Bft) SO 135 -6,5 C -3,2 C
07.03.2012 03:22 -1,1 C 66 % 1029,9 hPa 0,0 l/m 1,4 km/h (1 Bft) SO 135 -6,6 C -1,1 C
07.03.2012 03:27 -1,1 C 66 % 1029,9 hPa 0,0 l/m 3,2 km/h (1 Bft) SO 135 -6,6 C -1,1 C
07.03.2012 03:32 -1,1 C 66 % 1029,9 hPa 0,0 l/m 1,8 km/h (1 Bft) O-SO 112 -6,6 C -1,1 C
07.03.2012 03:37 -1,1 C 66 % 1029,8 hPa 0,0 l/m 5,8 km/h (2 Bft) SO 135 -6,6 C -3,2 C
07.03.2012 03:42 -1,2 C 66 % 1029,7 hPa 0,0 l/m 3,2 km/h (1 Bft) SO 135 -6,7 C -1,2 C
07.03.2012 03:47 -1,2 C 66 % 1029,7 hPa 0,0 l/m 1,1 km/h (1 Bft) SO 135 -6,7 C -1,2 C
07.03.2012 03:52 -1,3 C 66 % 1029,7 hPa 0,0 l/m 2,2 km/h (1 Bft) SO 135 -6,8 C -1,3 C
07.03.2012 03:57 -1,4 C 66 % 1029,7 hPa 0,0 l/m 3,6 km/h (1 Bft) SO 135 -6,9 C -1,4 C
07.03.2012 04:02 -1,4 C 66 % 1029,7 hPa 0,0 l/m 5,0 km/h (1 Bft) O-SO 112 -6,9 C -3,2 C
07.03.2012 04:07 -1,4 C 67 % 1029,5 hPa 0,0 l/m 0,0 km/h (0 Bft) O-SO 112 -6,7 C -1,4 C
07.03.2012 04:12 -1,5 C 67 % 1029,4 hPa 0,0 l/m 2,2 km/h (1 Bft) O-SO 112 -6,8 C -1,5 C
07.03.2012 04:17 -1,6 C 67 % 1029,3 hPa 0,0 l/m 1,4 km/h (1 Bft) O-SO 112 -6,9 C -1,6 C
07.03.2012 04:22 -1,6 C 68 % 1029,2 hPa 0,0 l/m 2,9 km/h (1 Bft) O-SO 112 -6,7 C -1,6 C
07.03.2012 04:27 -1,7 C 68 % 1029,2 hPa 0,0 l/m 2,2 km/h (1 Bft) O-SO 112 -6,8 C -1,7 C
07.03.2012 04:32 -1,7 C 68 % 1029,1 hPa 0,0 l/m 2,9 km/h (1 Bft) O-SO 112 -6,8 C -1,7 C
07.03.2012 04:37 -1,7 C 68 % 1029,2 hPa 0,0 l/m 0,0 km/h (0 Bft) O-SO 112 -6,8 C -1,7 C
07.03.2012 04:42 -1,8 C 68 % 1029,0 hPa 0,0 l/m 2,9 km/h (1 Bft) O-SO 112 -6,9 C -1,8 C
07.03.2012 04:47 -1,9 C 68 % 1029,0 hPa 0,0 l/m 5,4 km/h (1 Bft) O-SO 112 -7,0 C -3,9 C
07.03.2012 04:52 -1,9 C 68 % 1028,8 hPa 0,0 l/m 2,5 km/h (1 Bft) O-SO 112 -7,0 C -1,9 C
07.03.2012 04:57 -1,9 C 69 % 1029,0 hPa 0,0 l/m 4,3 km/h (1 Bft) O-SO 112 -6,8 C -1,9 C
07.03.2012 05:02 -2,0 C 69 % 1028,9 hPa 0,0 l/m 0,0 km/h (0 Bft) O-SO 112 -6,9 C -2,0 C
07.03.2012 05:07 -2,0 C 69 % 1028,8 hPa 0,0 l/m 2,5 km/h (1 Bft) O-SO 112 -6,9 C -2,0 C
07.03.2012 05:12 -1,9 C 69 % 1028,8 hPa 0,0 l/m 4,0 km/h (1 Bft) O-SO 112 -6,8 C -1,9 C
07.03.2012 05:17 -1,9 C 69 % 1028,8 hPa 0,0 l/m 3,2 km/h (1 Bft) O-SO 112 -6,8 C -1,9 C
07.03.2012 05:22 -2,1 C 69 % 1028,6 hPa 0,0 l/m 4,7 km/h (1 Bft) O-SO 112 -7,0 C -3,8 C
07.03.2012 05:27 -2,1 C 69 % 1028,8 hPa 0,0 l/m 5,0 km/h (1 Bft) O-SO 112 -7,0 C -4,0 C
07.03.2012 05:32 -2,1 C 69 % 1028,7 hPa 0,0 l/m 2,9 km/h (1 Bft) O-SO 112 -7,0 C -2,1 C
07.03.2012 05:37 -2,2 C 69 % 1028,6 hPa 0,0 l/m 2,9 km/h (1 Bft) O-SO 112 -7,1 C -2,2 C
07.03.2012 05:42 -2,2 C 70 % 1028,6 hPa 0,0 l/m 3,2 km/h (1 Bft) O-SO 112 -6,9 C -2,2 C
07.03.2012 05:47 -2,2 C 69 % 1028,5 hPa 0,0 l/m 5,0 km/h (1 Bft) O-SO 112 -7,1 C -4,1 C
07.03.2012 05:52 -2,2 C 70 % 1028,6 hPa 0,0 l/m 2,9 km/h (1 Bft) SO 135 -6,9 C -2,2 C
07.03.2012 05:57 -2,2 C 70 % 1028,4 hPa 0,0 l/m 2,9 km/h (1 Bft) O-SO 112 -6,9 C -2,2 C
07.03.2012 06:02 -2,3 C 70 % 1028,5 hPa 0,0 l/m 4,7 km/h (1 Bft) O-SO 112 -7,0 C -4,0 C
07.03.2012 06:07 -2,4 C 70 % 1028,7 hPa 0,0 l/m 7,9 km/h (2 Bft) O-SO 112 -7,1 C -5,5 C
07.03.2012 06:12 -2,4 C 71 % 1028,6 hPa 0,0 l/m 4,0 km/h (1 Bft) O-SO 112 -6,9 C -2,4 C
07.03.2012 06:17 -2,4 C 71 % 1028,5 hPa 0,0 l/m 5,0 km/h (1 Bft) O-SO 112 -6,9 C -4,3 C
07.03.2012 06:22 -2,5 C 71 % 1028,5 hPa 0,0 l/m 4,0 km/h (1 Bft) O-SO 112 -7,0 C -2,5 C
07.03.2012 06:27 -2,5 C 71 % 1028,5 hPa 0,0 l/m 8,3 km/h (2 Bft) O-SO 112 -7,0 C -5,8 C
07.03.2012 06:32 -2,5 C 71 % 1028,5 hPa 0,0 l/m 2,5 km/h (1 Bft) O-SO 112 -7,0 C -2,5 C
07.03.2012 06:37 -2,5 C 71 % 1028,4 hPa 0,0 l/m 4,3 km/h (1 Bft) SO 135 -7,0 C -2,5 C
07.03.2012 06:42 -2,5 C 71 % 1028,1 hPa 0,0 l/m 3,2 km/h (1 Bft) SO 135 -7,0 C -2,5 C
07.03.2012 06:47 -2,6 C 71 % 1028,2 hPa 0,0 l/m 5,0 km/h (1 Bft) SO 135 -7,1 C -4,5 C
07.03.2012 06:52 -2,6 C 71 % 1028,0 hPa 0,0 l/m 4,7 km/h (1 Bft) O-SO 112 -7,1 C -4,4 C
07.03.2012 06:57 -2,6 C 71 % 1027,9 hPa 0,0 l/m 4,0 km/h (1 Bft) O-SO 112 -7,1 C -2,6 C
07.03.2012 07:02 -2,6 C 71 % 1027,9 hPa 0,0 l/m 5,8 km/h (2 Bft) O-SO 112 -7,1 C -4,9 C
07.03.2012 07:07 -2,6 C 71 % 1027,8 hPa 0,0 l/m 3,2 km/h (1 Bft) O-SO 112 -7,1 C -2,6 C
07.03.2012 07:12 -2,6 C 71 % 1027,8 hPa 0,0 l/m 4,3 km/h (1 Bft) O-SO 112 -7,1 C -2,6 C
07.03.2012 07:17 -2,6 C 71 % 1027,8 hPa 0,0 l/m 5,0 km/h (1 Bft) O-SO 112 -7,1 C -4,5 C
07.03.2012 07:22 -2,6 C 71 % 1027,7 hPa 0,0 l/m 6,5 km/h (2 Bft) O-SO 112 -7,1 C -5,2 C
07.03.2012 07:27 -2,6 C 71 % 1027,6 hPa 0,0 l/m 4,0 km/h (1 Bft) O 90 -7,1 C -2,6 C
07.03.2012 07:32 -2,5 C 71 % 1027,4 hPa 0,0 l/m 8,3 km/h (2 Bft) S-SO 157 -7,0 C -5,8 C
07.03.2012 07:37 -2,5 C 71 % 1027,6 hPa 0,0 l/m 7,2 km/h (2 Bft) O 90 -7,0 C -5,4 C
07.03.2012 07:42 -2,5 C 71 % 1027,5 hPa 0,0 l/m 3,6 km/h (1 Bft) O 90 -7,0 C -2,5 C
07.03.2012 07:47 -2,4 C 72 % 1027,3 hPa 0,0 l/m 2,5 km/h (1 Bft) SO 135 -6,7 C -2,4 C
07.03.2012 07:52 -2,2 C 72 % 1027,4 hPa 0,0 l/m 4,7 km/h (1 Bft) SO 135 -6,5 C -3,9 C
07.03.2012 07:57 -2,2 C 72 % 1027,4 hPa 0,0 l/m 6,5 km/h (2 Bft) SO 135 -6,5 C -4,8 C
07.03.2012 08:02 -2,1 C 72 % 1027,3 hPa 0,0 l/m 12,2 km/h (2 Bft) S-SO 157 -6,5 C -6,4 C
07.03.2012 08:07 -1,9 C 71 % 1027,4 hPa 0,0 l/m 3,2 km/h (1 Bft) O 90 -6,4 C -1,9 C
07.03.2012 08:12 -1,9 C 71 % 1027,3 hPa 0,0 l/m 7,9 km/h (2 Bft) O 90 -6,4 C -4,9 C
07.03.2012 08:17 -1,7 C 70 % 1027,3 hPa 0,0 l/m 8,3 km/h (2 Bft) SO 135 -6,4 C -4,8 C
07.03.2012 08:22 -1,6 C 70 % 1027,2 hPa 0,0 l/m 8,3 km/h (2 Bft) O-SO 112 -6,3 C -4,7 C
07.03.2012 08:27 -1,6 C 70 % 1027,2 hPa 0,0 l/m 7,2 km/h (2 Bft) O 90 -6,3 C -4,3 C
07.03.2012 08:32 -1,4 C 70 % 1027,0 hPa 0,0 l/m 10,1 km/h (2 Bft) SO 135 -6,1 C -5,0 C
07.03.2012 08:37 -1,3 C 69 % 1027,1 hPa 0,0 l/m 7,2 km/h (2 Bft) O 90 -6,2 C -4,0 C
07.03.2012 08:42 -1,2 C 68 % 1027,2 hPa 0,0 l/m 3,6 km/h (1 Bft) SO 135 -6,3 C -1,2 C
07.03.2012 08:47 -1,1 C 68 % 1027,0 hPa 0,0 l/m 13,0 km/h (3 Bft) S-SO 157 -6,2 C -5,4 C
07.03.2012 08:52 -1,1 C 68 % 1027,0 hPa 0,0 l/m 9,4 km/h (2 Bft) O-NO 67 -6,2 C -4,5 C
07.03.2012 08:57 -0,9 C 68 % 1026,9 hPa 0,0 l/m 8,3 km/h (2 Bft) SO 135 -6,0 C -3,9 C
07.03.2012 09:02 -0,8 C 68 % 1026,9 hPa 0,0 l/m 6,1 km/h (2 Bft) O 90 -5,9 C -3,0 C
07.03.2012 09:07 -0,7 C 67 % 1026,8 hPa 0,0 l/m 13,0 km/h (3 Bft) SO 135 -6,0 C -4,9 C
07.03.2012 09:12 -0,6 C 67 % 1026,6 hPa 0,0 l/m 6,1 km/h (2 Bft) SO 135 -6,0 C -2,8 C
07.03.2012 09:17 -0,4 C 67 % 1026,6 hPa 0,0 l/m 7,6 km/h (2 Bft) SO 135 -5,8 C -3,1 C
07.03.2012 09:22 -0,3 C 67 % 1026,6 hPa 0,0 l/m 4,0 km/h (1 Bft) S-SO 157 -5,7 C -0,3 C
07.03.2012 09:27 -0,2 C 66 % 1026,2 hPa 0,0 l/m 5,0 km/h (1 Bft) O 90 -5,8 C -1,8 C
07.03.2012 09:32 -0,1 C 66 % 1026,2 hPa 0,0 l/m 9,7 km/h (2 Bft) SO 135 -5,7 C -3,4 C
07.03.2012 09:37 0,1 C 66 % 1026,2 hPa 0,0 l/m 10,4 km/h (2 Bft) SO 135 -5,5 C -3,3 C
07.03.2012 09:42 0,2 C 65 % 1026,2 hPa 0,0 l/m 8,3 km/h (2 Bft) SO 135 -5,6 C -2,6 C
07.03.2012 09:47 0,3 C 65 % 1026,1 hPa 0,0 l/m 6,1 km/h (2 Bft) S-SO 157 -5,5 C -1,7 C
07.03.2012 09:52 0,4 C 65 % 1026,1 hPa 0,0 l/m 9,7 km/h (2 Bft) SO 135 -5,4 C -2,8 C
07.03.2012 09:57 0,5 C 64 % 1026,1 hPa 0,0 l/m 3,6 km/h (1 Bft) SO 135 -5,5 C 0,5 C
07.03.2012 10:02 0,7 C 64 % 1026,0 hPa 0,0 l/m 7,2 km/h (2 Bft) O-SO 112 -5,3 C -1,7 C
07.03.2012 10:07 0,8 C 64 % 1026,1 hPa 0,0 l/m 9,7 km/h (2 Bft) O-SO 112 -5,2 C -2,3 C
07.03.2012 10:12 0,9 C 63 % 1025,9 hPa 0,0 l/m 9,0 km/h (2 Bft) SO 135 -5,3 C -2,0 C
07.03.2012 10:17 1,1 C 63 % 1025,8 hPa 0,0 l/m 9,4 km/h (2 Bft) O-SO 112 -5,1 C -1,8 C
07.03.2012 10:22 1,3 C 63 % 1025,7 hPa 0,0 l/m 10,1 km/h (2 Bft) SO 135 -5,0 C -1,8 C
07.03.2012 10:27 1,3 C 63 % 1025,4 hPa 0,0 l/m 5,8 km/h (2 Bft) O-SO 112 -5,0 C -0,5 C
07.03.2012 10:32 1,4 C 63 % 1025,4 hPa 0,0 l/m 12,2 km/h (2 Bft) O-NO 67 -4,9 C -2,1 C
07.03.2012 10:37 1,6 C 62 % 1025,3 hPa 0,0 l/m 10,4 km/h (2 Bft) SO 135 -4,9 C -1,5 C
07.03.2012 10:42 1,6 C 62 % 1025,1 hPa 0,0 l/m 7,9 km/h (2 Bft) O-SO 112 -4,9 C -0,8 C
07.03.2012 10:47 1,8 C 62 % 1025,2 hPa 0,0 l/m 3,6 km/h (1 Bft) S-SO 157 -4,7 C 1,8 C
07.03.2012 10:52 1,9 C 62 % 1025,0 hPa 0,0 l/m 14,0 km/h (3 Bft) O-SO 112 -4,6 C -1,9 C
07.03.2012 10:57 2,1 C 61 % 1024,9 hPa 0,0 l/m 6,5 km/h (2 Bft) S 180 -4,6 C 0,2 C
07.03.2012 11:02 2,2 C 61 % 1024,8 hPa 0,0 l/m 8,3 km/h (2 Bft) O-SO 112 -4,5 C -0,2 C
07.03.2012 11:07 2,3 C 60 % 1024,8 hPa 0,0 l/m 11,9 km/h (2 Bft) O-SO 112 -4,6 C -1,0 C
07.03.2012 11:12 2,5 C 60 % 1024,7 hPa 0,0 l/m 7,9 km/h (2 Bft) O-SO 112 -4,5 C 0,2 C
07.03.2012 11:17 2,7 C 60 % 1024,4 hPa 0,0 l/m 5,8 km/h (2 Bft) SO 135 -4,3 C 1,2 C
07.03.2012 11:22 2,9 C 60 % 1024,4 hPa 0,0 l/m 6,5 km/h (2 Bft) SO 135 -4,1 C 1,1 C
07.03.2012 11:27 3,1 C 59 % 1024,4 hPa 0,0 l/m 7,9 km/h (2 Bft) O 90 -4,1 C 0,9 C
07.03.2012 11:32 3,1 C 58 % 1024,3 hPa 0,0 l/m 4,7 km/h (1 Bft) O-SO 112 -4,3 C 2,1 C
07.03.2012 11:37 3,3 C 58 % 1024,3 hPa 0,0 l/m 9,4 km/h (2 Bft) SO 135 -4,2 C 0,8 C
07.03.2012 11:42 3,5 C 57 % 1024,2 hPa 0,0 l/m 4,0 km/h (1 Bft) SO 135 -4,2 C 3,5 C
07.03.2012 11:47 3,6 C 57 % 1024,2 hPa 0,0 l/m 7,6 km/h (2 Bft) SO 135 -4,1 C 1,6 C
07.03.2012 11:52 3,8 C 56 % 1024,1 hPa 0,0 l/m 7,6 km/h (2 Bft) O-SO 112 -4,2 C 1,8 C
07.03.2012 11:57 3,9 C 56 % 1024,0 hPa 0,0 l/m 10,8 km/h (2 Bft) O-SO 112 -4,1 C 1,2 C
07.03.2012 12:02 4,2 C 55 % 1023,8 hPa 0,0 l/m 8,3 km/h (2 Bft) SO 135 -4,0 C 2,1 C
07.03.2012 12:07 4,4 C 55 % 1023,6 hPa 0,0 l/m 13,0 km/h (3 Bft) S-SO 157 -3,8 C 1,3 C
07.03.2012 12:12 4,6 C 54 % 1023,6 hPa 0,0 l/m 8,3 km/h (2 Bft) SO 135 -3,9 C 2,6 C
07.03.2012 12:17 4,7 C 53 % 1023,5 hPa 0,0 l/m 4,0 km/h (1 Bft) S-SO 157 -4,0 C 4,7 C
07.03.2012 12:22 4,7 C 54 % 1023,5 hPa 0,0 l/m 5,0 km/h (1 Bft) S-SO 157 -3,8 C 3,7 C
07.03.2012 12:27 4,7 C 53 % 1023,3 hPa 0,0 l/m 4,0 km/h (1 Bft) SO 135 -4,0 C 4,7 C
07.03.2012 12:32 4,7 C 53 % 1023,1 hPa 0,0 l/m 5,0 km/h (1 Bft) O-SO 112 -4,0 C 3,7 C
07.03.2012 12:37 4,6 C 53 % 1023,2 hPa 0,0 l/m 8,3 km/h (2 Bft) S-SO 157 -4,1 C 2,6 C
07.03.2012 12:42 4,7 C 53 % 1022,9 hPa 0,0 l/m 7,6 km/h (2 Bft) SO 135 -4,0 C 2,9 C
07.03.2012 12:47 4,6 C 53 % 1022,9 hPa 0,0 l/m 4,0 km/h (1 Bft) S 180 -4,1 C 4,6 C
07.03.2012 12:52 4,8 C 54 % 1022,6 hPa 0,0 l/m 8,6 km/h (2 Bft) SO 135 -3,7 C 2,7 C
07.03.2012 12:57 4,8 C 54 % 1022,6 hPa 0,0 l/m 11,9 km/h (2 Bft) SO 135 -3,7 C 2,0 C
07.03.2012 13:02 4,8 C 54 % 1022,7 hPa 0,0 l/m 3,2 km/h (1 Bft) SO 135 -3,7 C 4,8 C
07.03.2012 13:07 4,8 C 54 % 1022,5 hPa 0,0 l/m 11,5 km/h (2 Bft) SO 135 -3,7 C 2,1 C
07.03.2012 13:12 4,9 C 54 % 1022,5 hPa 0,0 l/m 6,8 km/h (2 Bft) SO 135 -3,6 C 3,4 C
07.03.2012 13:17 5,0 C 54 % 1022,2 hPa 0,0 l/m 8,6 km/h (2 Bft) SO 135 -3,5 C 3,0 C
07.03.2012 13:22 5,1 C 54 % 1022,2 hPa 0,0 l/m 13,0 km/h (3 Bft) O-SO 112 -3,4 C 2,2 C
07.03.2012 13:27 5,2 C 54 % 1022,2 hPa 0,0 l/m 15,1 km/h (3 Bft) S-SO 157 -3,3 C 2,0 C
07.03.2012 13:32 5,3 C 54 % 1022,1 hPa 0,0 l/m 2,9 km/h (1 Bft) O-SO 112 -3,2 C 5,3 C
07.03.2012 13:37 5,4 C 54 % 1022,0 hPa 0,0 l/m 2,2 km/h (1 Bft) S-SO 157 -3,1 C 5,4 C
07.03.2012 13:42 5,6 C 54 % 1021,9 hPa 0,0 l/m 6,1 km/h (2 Bft) S-SO 157 -3,0 C 4,4 C
07.03.2012 13:47 5,8 C 54 % 1021,9 hPa 0,0 l/m 3,6 km/h (1 Bft) O-SO 112 -2,8 C 5,8 C
07.03.2012 13:52 5,9 C 54 % 1021,8 hPa 0,0 l/m 2,5 km/h (1 Bft) S-SO 157 -2,7 C 5,9 C
07.03.2012 13:57 6,1 C 54 % 1021,5 hPa 0,0 l/m 3,2 km/h (1 Bft) S-SO 157 -2,5 C 6,1 C
07.03.2012 14:02 6,3 C 53 % 1021,4 hPa 0,0 l/m 4,0 km/h (1 Bft) S-SO 157 -2,6 C 6,3 C
07.03.2012 14:07 6,4 C 53 % 1021,3 hPa 0,0 l/m 4,0 km/h (1 Bft) S-SO 157 -2,5 C 6,4 C
07.03.2012 14:12 6,5 C 52 % 1021,1 hPa 0,0 l/m 4,0 km/h (1 Bft) O-SO 112 -2,6 C 6,5 C
07.03.2012 14:17 6,5 C 53 % 1021,0 hPa 0,0 l/m 6,1 km/h (2 Bft) SO 135 -2,4 C 5,4 C
07.03.2012 14:22 6,6 C 53 % 1021,0 hPa 0,0 l/m 3,2 km/h (1 Bft) O-NO 67 -2,3 C 6,6 C
07.03.2012 14:27 6,6 C 53 % 1020,8 hPa 0,0 l/m 4,0 km/h (1 Bft) S-SO 157 -2,3 C 6,6 C
07.03.2012 14:32 6,7 C 53 % 1020,6 hPa 0,0 l/m 8,3 km/h (2 Bft) O-SO 112 -2,2 C 5,1 C
07.03.2012 14:37 6,8 C 53 % 1020,4 hPa 0,0 l/m 9,7 km/h (2 Bft) SO 135 -2,1 C 4,9 C
07.03.2012 14:42 6,8 C 53 % 1020,3 hPa 0,0 l/m 7,2 km/h (2 Bft) SO 135 -2,1 C 5,5 C
07.03.2012 14:47 6,9 C 53 % 1020,2 hPa 0,0 l/m 4,0 km/h (1 Bft) S-SO 157 -2,0 C 6,9 C
07.03.2012 14:52 7,0 C 53 % 1020,0 hPa 0,0 l/m 5,8 km/h (2 Bft) O-SO 112 -1,9 C 6,1 C
07.03.2012 14:57 7,0 C 53 % 1020,0 hPa 0,0 l/m 8,3 km/h (2 Bft) S-SO 157 -1,9 C 5,4 C
07.03.2012 15:02 7,1 C 52 % 1019,9 hPa 0,0 l/m 6,1 km/h (2 Bft) O-SO 112 -2,1 C 6,1 C
07.03.2012 15:07 7,0 C 53 % 1019,6 hPa 0,0 l/m 7,2 km/h (2 Bft) S-SO 157 -1,9 C 5,7 C
07.03.2012 15:12 7,0 C 53 % 1019,5 hPa 0,0 l/m 14,4 km/h (3 Bft) SO 135 -1,9 C 4,3 C
07.03.2012 15:17 7,1 C 53 % 1019,4 hPa 0,0 l/m 4,3 km/h (1 Bft) O 90 -1,8 C 7,1 C
07.03.2012 15:22 7,1 C 53 % 1019,3 hPa 0,0 l/m 5,0 km/h (1 Bft) O 90 -1,8 C 6,5 C
07.03.2012 15:27 7,0 C 53 % 1019,2 hPa 0,0 l/m 17,3 km/h (3 Bft) SO 135 -1,9 C 3,9 C
07.03.2012 15:32 7,0 C 54 % 1019,1 hPa 0,0 l/m 17,3 km/h (3 Bft) SO 135 -1,7 C 3,9 C
07.03.2012 15:37 6,9 C 54 % 1019,0 hPa 0,0 l/m 8,3 km/h (2 Bft) SO 135 -1,8 C 5,3 C
07.03.2012 15:42 6,9 C 54 % 1019,0 hPa 0,0 l/m 4,3 km/h (1 Bft) O 90 -1,8 C 6,9 C
07.03.2012 15:47 6,9 C 54 % 1018,9 hPa 0,0 l/m 6,5 km/h (2 Bft) S-SO 157 -1,8 C 5,8 C
07.03.2012 15:52 6,9 C 54 % 1018,8 hPa 0,0 l/m 4,0 km/h (1 Bft) O-SO 112 -1,8 C 6,9 C
07.03.2012 15:57 6,9 C 54 % 1018,6 hPa 0,0 l/m 4,3 km/h (1 Bft) O-SO 112 -1,8 C 6,9 C
07.03.2012 16:02 6,9 C 55 % 1018,4 hPa 0,0 l/m 4,0 km/h (1 Bft) O-SO 112 -1,5 C 6,9 C
07.03.2012 16:07 6,9 C 55 % 1018,4 hPa 0,0 l/m 2,5 km/h (1 Bft) O 90 -1,5 C 6,9 C
07.03.2012 16:12 6,9 C 55 % 1018,3 hPa 0,0 l/m 12,6 km/h (3 Bft) SO 135 -1,5 C 4,5 C
07.03.2012 16:17 6,9 C 55 % 1018,1 hPa 0,0 l/m 6,8 km/h (2 Bft) S-SO 157 -1,5 C 5,7 C
07.03.2012 16:22 6,9 C 56 % 1018,1 hPa 0,0 l/m 6,1 km/h (2 Bft) S 180 -1,3 C 5,9 C
07.03.2012 16:27 6,9 C 56 % 1017,9 hPa 0,0 l/m 4,7 km/h (1 Bft) SO 135 -1,3 C 6,3 C
07.03.2012 16:32 6,9 C 56 % 1017,9 hPa 0,0 l/m 10,1 km/h (2 Bft) O-SO 112 -1,3 C 4,9 C
07.03.2012 16:37 6,9 C 57 % 1017,9 hPa 0,0 l/m 5,8 km/h (2 Bft) S-SO 157 -1,0 C 6,0 C
07.03.2012 16:42 6,8 C 57 % 1017,9 hPa 0,0 l/m 4,7 km/h (1 Bft) S 180 -1,1 C 6,2 C
07.03.2012 16:47 6,8 C 57 % 1017,8 hPa 0,0 l/m 6,1 km/h (2 Bft) SO 135 -1,1 C 5,8 C
07.03.2012 16:52 6,8 C 58 % 1017,7 hPa 0,0 l/m 11,2 km/h (2 Bft) SO 135 -0,9 C 4,6 C
07.03.2012 16:57 6,8 C 58 % 1017,6 hPa 0,0 l/m 5,0 km/h (1 Bft) O-SO 112 -0,9 C 6,1 C
07.03.2012 17:02 6,7 C 58 % 1017,4 hPa 0,0 l/m 10,4 km/h (2 Bft) SO 135 -1,0 C 4,6 C
07.03.2012 17:07 6,7 C 58 % 1017,2 hPa 0,0 l/m 5,8 km/h (2 Bft) SO 135 -1,0 C 5,7 C
07.03.2012 17:12 6,6 C 59 % 1017,2 hPa 0,0 l/m 11,2 km/h (2 Bft) SO 135 -0,8 C 4,3 C
07.03.2012 17:17 6,6 C 59 % 1017,1 hPa 0,0 l/m 9,7 km/h (2 Bft) O-SO 112 -0,8 C 4,6 C
07.03.2012 17:22 6,5 C 59 % 1017,0 hPa 0,0 l/m 2,5 km/h (1 Bft) O-SO 112 -0,9 C 6,5 C
07.03.2012 17:27 6,4 C 60 % 1017,1 hPa 0,0 l/m 4,0 km/h (1 Bft) O-SO 112 -0,8 C 6,4 C
07.03.2012 17:32 6,4 C 60 % 1016,8 hPa 0,0 l/m 4,0 km/h (1 Bft) S-SO 157 -0,8 C 6,4 C
07.03.2012 17:37 6,3 C 61 % 1016,7 hPa 0,0 l/m 2,9 km/h (1 Bft) O 90 -0,7 C 6,3 C
07.03.2012 17:42 6,2 C 61 % 1016,8 hPa 0,0 l/m 6,1 km/h (2 Bft) SO 135 -0,7 C 5,1 C
07.03.2012 17:47 6,2 C 61 % 1016,6 hPa 0,0 l/m 4,7 km/h (1 Bft) S-SO 157 -0,7 C 5,6 C
07.03.2012 17:52 6,2 C 61 % 1016,5 hPa 0,0 l/m 5,4 km/h (1 Bft) SO 135 -0,7 C 5,3 C
07.03.2012 17:57 6,1 C 61 % 1016,3 hPa 0,0 l/m 8,3 km/h (2 Bft) SO 135 -0,8 C 4,4 C
07.03.2012 18:02 6,1 C 61 % 1016,5 hPa 0,0 l/m 2,5 km/h (1 Bft) S-SO 157 -0,8 C 6,1 C
07.03.2012 18:07 6,1 C 62 % 1016,3 hPa 0,0 l/m 7,6 km/h (2 Bft) SO 135 -0,6 C 4,5 C
07.03.2012 18:12 5,9 C 62 % 1016,1 hPa 0,0 l/m 5,4 km/h (1 Bft) O-SO 112 -0,8 C 5,0 C
07.03.2012 18:17 5,9 C 62 % 1016,3 hPa 0,0 l/m 3,2 km/h (1 Bft) O 90 -0,8 C 5,9 C
07.03.2012 18:22 5,9 C 63 % 1016,1 hPa 0,0 l/m 6,1 km/h (2 Bft) SO 135 -0,6 C 4,7 C
07.03.2012 18:27 5,9 C 63 % 1016,1 hPa 0,0 l/m 9,0 km/h (2 Bft) SO 135 -0,6 C 4,0 C
07.03.2012 18:32 5,9 C 63 % 1016,1 hPa 0,0 l/m 6,8 km/h (2 Bft) O-SO 112 -0,6 C 4,5 C
07.03.2012 18:37 5,9 C 63 % 1016,0 hPa 0,0 l/m 2,9 km/h (1 Bft) O-SO 112 -0,6 C 5,9 C
07.03.2012 18:42 5,9 C 63 % 1015,7 hPa 0,0 l/m 6,5 km/h (2 Bft) SO 135 -0,6 C 4,6 C
07.03.2012 18:47 5,9 C 63 % 1015,8 hPa 0,0 l/m 7,2 km/h (2 Bft) SO 135 -0,6 C 4,4 C
07.03.2012 18:52 5,9 C 63 % 1015,7 hPa 0,0 l/m 3,2 km/h (1 Bft) SO 135 -0,6 C 5,9 C
07.03.2012 18:57 5,9 C 63 % 1015,8 hPa 0,0 l/m 7,6 km/h (2 Bft) SO 135 -0,6 C 4,3 C
07.03.2012 19:02 5,9 C 63 % 1015,6 hPa 0,0 l/m 11,5 km/h (2 Bft) O-NO 67 -0,6 C 3,4 C
07.03.2012 19:07 5,9 C 63 % 1015,5 hPa 0,0 l/m 7,9 km/h (2 Bft) O-SO 112 -0,6 C 4,2 C
07.03.2012 19:12 5,9 C 63 % 1015,7 hPa 0,0 l/m 5,4 km/h (1 Bft) O-SO 112 -0,6 C 5,0 C
07.03.2012 19:17 5,9 C 63 % 1015,5 hPa 0,0 l/m 7,2 km/h (2 Bft) O 90 -0,6 C 4,4 C
07.03.2012 19:22 5,9 C 63 % 1015,3 hPa 0,0 l/m 6,5 km/h (2 Bft) S-SO 157 -0,6 C 4,6 C
07.03.2012 19:27 5,9 C 64 % 1015,4 hPa 0,0 l/m 5,0 km/h (1 Bft) S-SO 157 -0,4 C 5,1 C
07.03.2012 19:32 5,9 C 64 % 1015,5 hPa 0,0 l/m 3,6 km/h (1 Bft) S-SO 157 -0,4 C 5,9 C
07.03.2012 19:37 6,0 C 64 % 1015,3 hPa 0,0 l/m 3,6 km/h (1 Bft) O-SO 112 -0,3 C 6,0 C
07.03.2012 19:42 6,0 C 64 % 1015,3 hPa 0,0 l/m 0,0 km/h (0 Bft) S-SO 157 -0,3 C 6,0 C
07.03.2012 19:47 5,9 C 64 % 1015,4 hPa 0,0 l/m 4,7 km/h (1 Bft) S 180 -0,4 C 5,2 C
07.03.2012 19:52 5,9 C 64 % 1015,3 hPa 0,0 l/m 4,0 km/h (1 Bft) O-SO 112 -0,4 C 5,9 C
07.03.2012 19:57 5,9 C 64 % 1015,4 hPa 0,0 l/m 8,3 km/h (2 Bft) S-SW 202 -0,4 C 4,1 C
07.03.2012 20:02 5,9 C 64 % 1015,2 hPa 0,0 l/m 9,4 km/h (2 Bft) S-SO 157 -0,4 C 3,9 C
07.03.2012 20:07 5,9 C 64 % 1015,3 hPa 0,0 l/m 7,6 km/h (2 Bft) S 180 -0,4 C 4,3 C
07.03.2012 20:12 6,0 C 65 % 1015,0 hPa 0,0 l/m 8,3 km/h (2 Bft) S 180 -0,1 C 4,2 C
07.03.2012 20:17 6,1 C 64 % 1014,9 hPa 0,0 l/m 8,3 km/h (2 Bft) S-SO 157 -0,2 C 4,4 C
07.03.2012 20:22 6,3 C 64 % 1015,1 hPa 0,0 l/m 11,2 km/h (2 Bft) SO 135 0,0 C 4,0 C
07.03.2012 20:27 6,4 C 64 % 1015,0 hPa 0,0 l/m 11,2 km/h (2 Bft) SO 135 0,1 C 4,1 C
07.03.2012 20:32 6,4 C 64 % 1014,9 hPa 0,0 l/m 6,5 km/h (2 Bft) S-SO 157 0,1 C 5,2 C
07.03.2012 20:37 6,4 C 63 % 1014,8 hPa 0,0 l/m 4,0 km/h (1 Bft) O-SO 112 -0,1 C 6,4 C
07.03.2012 20:42 6,4 C 63 % 1014,9 hPa 0,0 l/m 0,0 km/h (0 Bft) SO 135 -0,1 C 6,4 C
07.03.2012 20:47 6,4 C 63 % 1014,7 hPa 0,0 l/m 2,2 km/h (1 Bft) O-SO 112 -0,1 C 6,4 C
07.03.2012 20:52 6,3 C 63 % 1014,7 hPa 0,0 l/m 6,8 km/h (2 Bft) S-SW 202 -0,2 C 5,0 C
07.03.2012 20:57 6,3 C 64 % 1014,8 hPa 0,0 l/m 5,8 km/h (2 Bft) S 180 0,0 C 5,3 C
07.03.2012 21:02 6,3 C 64 % 1014,9 hPa 0,0 l/m 4,3 km/h (1 Bft) W 270 0,0 C 6,3 C
07.03.2012 21:07 6,2 C 65 % 1014,9 hPa 0,0 l/m 14,4 km/h (3 Bft) W-SW 247 0,1 C 3,3 C
07.03.2012 21:12 6,3 C 66 % 1015,0 hPa 0,0 l/m 6,1 km/h (2 Bft) S-SO 157 0,4 C 5,2 C
07.03.2012 21:17 6,3 C 66 % 1014,9 hPa 0,0 l/m 18,4 km/h (3 Bft) S 180 0,4 C 2,9 C
07.03.2012 21:22 6,4 C 66 % 1014,8 hPa 0,0 l/m 13,3 km/h (3 Bft) S-SW 202 0,5 C 3,7 C
07.03.2012 21:27 6,4 C 66 % 1014,7 hPa 0,0 l/m 6,1 km/h (2 Bft) SO 135 0,5 C 5,3 C
07.03.2012 21:32 6,4 C 66 % 1014,7 hPa 0,0 l/m 5,0 km/h (1 Bft) S-SO 157 0,5 C 5,7 C
07.03.2012 21:37 6,4 C 67 % 1014,7 hPa 0,0 l/m 12,2 km/h (2 Bft) S-SW 202 0,7 C 3,9 C
07.03.2012 21:42 6,4 C 67 % 1014,9 hPa 0,0 l/m 9,0 km/h (2 Bft) W-SW 247 0,7 C 4,5 C
07.03.2012 21:47 6,3 C 68 % 1014,9 hPa 0,0 l/m 14,0 km/h (3 Bft) W-SW 247 0,8 C 3,5 C
07.03.2012 21:52 6,2 C 69 % 1015,0 hPa 0,0 l/m 9,7 km/h (2 Bft) W-SW 247 0,9 C 4,2 C
07.03.2012 21:57 6,1 C 69 % 1014,9 hPa 0,0 l/m 8,3 km/h (2 Bft) W-SW 247 0,8 C 4,4 C
07.03.2012 22:02 6,0 C 70 % 1014,8 hPa 0,0 l/m 12,6 km/h (3 Bft) SW 225 1,0 C 3,4 C
07.03.2012 22:07 5,9 C 71 % 1014,8 hPa 0,0 l/m 7,6 km/h (2 Bft) W-SW 247 1,1 C 4,3 C
07.03.2012 22:12 5,8 C 72 % 1014,7 hPa 0,0 l/m 5,4 km/h (1 Bft) W-SW 247 1,2 C 4,8 C
07.03.2012 22:17 5,8 C 72 % 1014,6 hPa 0,0 l/m 11,9 km/h (2 Bft) SW 225 1,2 C 3,2 C
07.03.2012 22:22 5,6 C 73 % 1014,6 hPa 0,0 l/m 15,5 km/h (3 Bft) SW 225 1,2 C 2,4 C
07.03.2012 22:27 5,6 C 74 % 1014,5 hPa 0,0 l/m 13,7 km/h (3 Bft) W-SW 247 1,3 C 2,7 C
07.03.2012 22:32 5,5 C 74 % 1014,4 hPa 0,0 l/m 6,8 km/h (2 Bft) W-SW 247 1,2 C 4,1 C
07.03.2012 22:37 5,4 C 75 % 1014,4 hPa 0,0 l/m 6,1 km/h (2 Bft) SW 225 1,3 C 4,2 C
07.03.2012 22:42 5,4 C 75 % 1014,3 hPa 0,0 l/m 9,7 km/h (2 Bft) SW 225 1,3 C 3,2 C
07.03.2012 22:47 5,3 C 76 % 1014,3 hPa 0,0 l/m 6,8 km/h (2 Bft) W 270 1,4 C 3,8 C
07.03.2012 22:52 5,3 C 76 % 1014,4 hPa 0,0 l/m 4,0 km/h (1 Bft) SW 225 1,4 C 5,3 C
07.03.2012 22:57 5,2 C 77 % 1014,2 hPa 0,0 l/m 4,0 km/h (1 Bft) S 180 1,5 C 5,2 C
07.03.2012 23:02 5,1 C 77 % 1014,2 hPa 0,0 l/m 4,7 km/h (1 Bft) S 180 1,4 C 4,3 C
07.03.2012 23:07 5,1 C 77 % 1014,2 hPa 0,0 l/m 1,4 km/h (1 Bft) SW 225 1,4 C 5,1 C
07.03.2012 23:12 5,1 C 78 % 1014,2 hPa 0,0 l/m 0,0 km/h (0 Bft) S-SW 202 1,6 C 5,1 C
07.03.2012 23:17 5,0 C 78 % 1014,2 hPa 0,0 l/m 8,3 km/h (2 Bft) S-SW 202 1,5 C 3,1 C
07.03.2012 23:22 4,9 C 79 % 1013,9 hPa 0,0 l/m 11,2 km/h (2 Bft) S 180 1,6 C 2,3 C
07.03.2012 23:27 4,9 C 79 % 1014,0 hPa 0,0 l/m 4,0 km/h (1 Bft) S 180 1,6 C 4,9 C
07.03.2012 23:32 4,9 C 79 % 1014,0 hPa 0,0 l/m 4,0 km/h (1 Bft) S 180 1,6 C 4,9 C
07.03.2012 23:37 4,9 C 80 % 1013,9 hPa 0,0 l/m 5,0 km/h (1 Bft) S-SW 202 1,7 C 4,0 C
07.03.2012 23:42 4,9 C 80 % 1013,9 hPa 0,5 l/m 5,0 km/h (1 Bft) SO 135 1,7 C 4,0 C
07.03.2012 23:47 4,8 C 80 % 1013,9 hPa 0,0 l/m 4,7 km/h (1 Bft) S-SW 202 1,6 C 4,0 C
07.03.2012 23:52 4,8 C 81 % 1013,7 hPa 0,0 l/m 5,0 km/h (1 Bft) SW 225 1,8 C 3,9 C
07.03.2012 23:57 4,8 C 81 % 1013,8 hPa 0,0 l/m 7,6 km/h (2 Bft) S 180 1,8 C 3,0 C
_ Min-Zeit 06:47 14:12 23:52 - 00:22 - - 06:47 08:02
Minimum _ -2,6 C 52 % 1013,7 hPa - 0,0 km/h (0 Bft) - - -7,1 C -6,4 C
_ Max-Zeit 15:02 23:52 01:07 23:42 21:17 - - 23:52 15:17
Maximum _ 7,1 C 81 % 1031,0 hPa 0,5 l/m 18,4 km/h
S (3 Bft)
- - 1,8 C 7,1 C
Durchschnitt _ 2,7 C 64 % 1022,9 hPa #0,5 l/m 6,1 km/h (2 Bft) SO - -3,6 C 1,4 C
(c) by David Heller